createdAt,value
2022-12-16T00:04:05.543Z,9.80
2022-12-16T00:09:25.624Z,9.40
2022-12-16T00:14:45.770Z,9.27
2022-12-16T00:20:05.897Z,9.23
2022-12-16T00:25:26.061Z,9.50
2022-12-16T00:30:46.119Z,7.90
2022-12-16T00:36:06.297Z,8.07
2022-12-16T00:41:26.439Z,9.60
2022-12-16T00:46:46.587Z,8.80
2022-12-16T00:52:06.741Z,8.47
2022-12-16T00:57:26.911Z,8.40
2022-12-16T01:02:47.152Z,8.40
2022-12-16T01:08:07.190Z,8.03
2022-12-16T01:13:27.227Z,7.93
2022-12-16T01:18:47.279Z,8.80
2022-12-16T01:24:07.218Z,7.47
2022-12-16T01:29:27.297Z,8.40
2022-12-16T01:34:52.494Z,9.27
2022-12-16T01:40:15.461Z,8.20
2022-12-16T01:45:35.592Z,8.80
2022-12-16T01:50:55.563Z,8.60
2022-12-16T01:56:15.659Z,7.97
2022-12-16T02:01:35.987Z,7.77
2022-12-16T02:06:56.120Z,8.80
2022-12-16T02:12:16.195Z,8.37
2022-12-16T02:17:36.405Z,9.17
2022-12-16T02:22:56.491Z,7.33
2022-12-16T02:28:16.643Z,7.30
2022-12-16T02:33:36.719Z,7.60
2022-12-16T02:38:56.902Z,7.63
2022-12-16T02:44:16.845Z,8.20
2022-12-16T02:49:36.936Z,7.90
2022-12-16T02:54:57.122Z,7.83
2022-12-16T03:00:17.215Z,8.57
2022-12-16T03:05:37.491Z,7.47
2022-12-16T03:10:57.821Z,7.70
2022-12-16T03:16:17.895Z,7.73
2022-12-16T03:21:38.091Z,7.97
2022-12-16T03:26:58.097Z,7.70
2022-12-16T03:32:18.135Z,7.30
2022-12-16T03:37:38.319Z,7.37
2022-12-16T03:42:58.362Z,8.20
2022-12-16T03:48:18.705Z,7.47
2022-12-16T03:53:38.977Z,8.23
2022-12-16T03:58:59.052Z,7.87
2022-12-16T04:04:19.210Z,7.40
2022-12-16T04:09:39.361Z,7.97
2022-12-16T04:14:59.471Z,7.20
2022-12-16T04:20:19.556Z,6.73
2022-12-16T04:25:39.584Z,7.40
2022-12-16T04:30:59.719Z,7.33
2022-12-16T04:36:19.783Z,7.60
2022-12-16T04:41:39.978Z,7.00
2022-12-16T04:47:00.089Z,8.50
2022-12-16T04:52:20.275Z,6.70
2022-12-16T04:57:40.459Z,6.83
2022-12-16T05:03:00.681Z,6.70
2022-12-16T05:08:20.870Z,6.80
2022-12-16T05:13:40.934Z,6.70
2022-12-16T05:19:00.993Z,6.70
2022-12-16T05:24:21.110Z,8.03
2022-12-16T05:29:41.131Z,7.67
2022-12-16T05:35:01.287Z,7.23
2022-12-16T05:40:21.319Z,7.03
2022-12-16T05:45:41.776Z,6.83
2022-12-16T05:51:01.768Z,7.23
2022-12-16T05:56:21.871Z,7.60
2022-12-16T06:01:42.188Z,6.87
2022-12-16T06:07:02.327Z,7.10
2022-12-16T06:12:22.423Z,7.13
2022-12-16T06:17:42.605Z,6.73
2022-12-16T06:23:02.721Z,7.10
2022-12-16T06:28:22.817Z,7.57
2022-12-16T06:33:42.903Z,6.60
2022-12-16T06:39:03.137Z,6.33
2022-12-16T06:44:23.383Z,6.83
2022-12-16T06:49:43.489Z,7.10
2022-12-16T06:55:03.539Z,7.03
2022-12-16T07:00:23.747Z,7.60
2022-12-16T07:05:43.801Z,6.10
2022-12-16T07:11:16.004Z,6.80
2022-12-16T07:16:37.341Z,7.30
2022-12-16T07:21:57.453Z,6.50
2022-12-16T07:27:17.834Z,6.20
2022-12-16T07:32:38.325Z,6.80
2022-12-16T07:37:58.563Z,7.00
2022-12-16T07:43:18.738Z,6.90
2022-12-16T07:48:38.929Z,6.67
2022-12-16T07:53:59.066Z,5.83
2022-12-16T07:59:19.413Z,6.53
2022-12-16T08:04:39.388Z,6.60
2022-12-16T08:09:59.661Z,6.93
2022-12-16T08:15:19.672Z,6.90
2022-12-16T08:20:39.918Z,6.67
2022-12-16T08:26:00.104Z,6.50
2022-12-16T08:31:20.311Z,6.23
2022-12-16T08:36:40.436Z,6.10
2022-12-16T08:42:00.774Z,6.23
2022-12-16T08:47:20.873Z,7.07
2022-12-16T08:52:40.992Z,6.77
2022-12-16T08:58:01.081Z,6.67
2022-12-16T09:03:21.608Z,6.23
2022-12-16T09:08:41.928Z,6.23
2022-12-16T09:14:02.188Z,7.10
2022-12-16T09:19:22.312Z,6.10
2022-12-16T09:24:42.661Z,6.60
2022-12-16T09:30:02.824Z,6.73
2022-12-16T09:35:23.120Z,6.40
2022-12-16T09:40:43.343Z,6.87
2022-12-16T09:46:03.522Z,6.50
2022-12-16T09:51:23.556Z,6.17
2022-12-16T09:56:43.803Z,6.17
2022-12-16T10:02:03.980Z,6.47
2022-12-16T10:07:24.210Z,6.90
2022-12-16T10:12:44.343Z,6.37
2022-12-16T10:18:04.656Z,6.23
2022-12-16T10:23:24.566Z,6.00
2022-12-16T10:28:44.834Z,5.60
2022-12-16T10:34:04.865Z,6.33
2022-12-16T10:39:25.184Z,5.93
2022-12-16T10:44:45.147Z,6.00
2022-12-16T10:50:05.287Z,6.70
2022-12-16T10:55:25.343Z,6.13
2022-12-16T11:00:45.448Z,6.50
2022-12-16T11:06:05.459Z,6.20
2022-12-16T11:11:25.706Z,6.27
2022-12-16T11:16:45.955Z,6.00
2022-12-16T11:22:06.167Z,6.40
2022-12-16T11:27:26.276Z,6.10
2022-12-16T11:32:46.685Z,6.53
2022-12-16T11:38:06.964Z,5.50
2022-12-16T11:43:27.111Z,6.33
2022-12-16T11:48:47.183Z,6.27
2022-12-16T11:54:07.372Z,6.03
2022-12-16T11:59:27.489Z,5.97
2022-12-16T12:04:47.748Z,6.57
2022-12-16T12:10:07.814Z,6.10
2022-12-16T12:15:28.449Z,5.53
2022-12-16T12:20:48.557Z,5.30
2022-12-16T12:26:08.820Z,6.37
2022-12-16T12:31:28.795Z,5.77
2022-12-16T12:36:49.054Z,5.80
2022-12-16T12:42:09.148Z,5.73
2022-12-16T12:47:29.381Z,6.30
2022-12-16T12:52:49.474Z,5.60
2022-12-16T12:58:09.702Z,5.63
2022-12-16T13:03:29.975Z,6.10
2022-12-16T13:08:50.186Z,6.00
2022-12-16T13:14:10.227Z,5.20
2022-12-16T13:19:30.525Z,5.67
2022-12-16T13:24:50.736Z,6.03
2022-12-16T13:30:11.260Z,6.10
2022-12-16T13:35:31.190Z,5.53
2022-12-16T13:40:51.374Z,5.20
2022-12-16T13:46:11.572Z,6.43
2022-12-16T13:51:31.785Z,6.10
2022-12-16T13:56:51.819Z,5.50
2022-12-16T14:02:12.074Z,5.90
2022-12-16T14:07:32.060Z,5.90
2022-12-16T14:12:52.159Z,5.80
2022-12-16T14:18:12.275Z,5.77
2022-12-16T14:23:55.804Z,6.07
2022-12-16T14:29:13.180Z,6.20
2022-12-16T14:34:33.104Z,6.07
2022-12-16T14:39:53.170Z,5.50
2022-12-16T14:45:13.384Z,5.17
2022-12-16T14:50:33.457Z,6.47
2022-12-16T14:55:53.674Z,6.83
2022-12-16T15:01:15.963Z,5.87
2022-12-16T15:06:36.446Z,5.23
2022-12-16T15:11:56.486Z,5.67
2022-12-16T15:17:16.893Z,6.23
2022-12-16T15:22:36.808Z,5.67
2022-12-16T15:27:56.966Z,5.77
2022-12-16T15:33:17.081Z,5.73
2022-12-16T15:38:37.160Z,6.23
2022-12-16T15:43:57.785Z,6.03
2022-12-16T15:49:17.848Z,5.93
2022-12-16T15:54:37.944Z,5.90
2022-12-16T15:59:57.927Z,5.63
2022-12-16T16:05:18.047Z,5.93
2022-12-16T16:10:38.275Z,5.60
2022-12-16T16:15:58.358Z,5.70
2022-12-16T16:21:18.429Z,5.83
2022-12-16T16:26:38.632Z,6.57
2022-12-16T16:32:03.862Z,5.87
2022-12-16T16:37:24.690Z,5.87
2022-12-16T16:42:44.817Z,5.77
2022-12-16T16:48:05.124Z,5.90
2022-12-16T16:53:25.354Z,5.73
2022-12-16T16:58:45.517Z,6.00
2022-12-16T17:04:05.896Z,5.87
2022-12-16T17:09:25.993Z,5.97
2022-12-16T17:14:46.062Z,6.33
2022-12-16T17:20:06.236Z,6.30
2022-12-16T17:25:26.361Z,6.87
2022-12-16T17:30:47.926Z,6.53
2022-12-16T17:36:08.222Z,6.13
2022-12-16T17:41:28.309Z,6.30
2022-12-16T17:46:48.598Z,6.40
2022-12-16T17:52:08.484Z,6.30
2022-12-16T17:57:28.522Z,6.27
2022-12-16T18:02:48.869Z,6.37
2022-12-16T18:08:08.871Z,6.13
2022-12-16T18:13:29.074Z,6.60
2022-12-16T18:18:49.126Z,7.40
2022-12-16T18:24:09.189Z,7.50
2022-12-16T18:29:29.423Z,6.90
2022-12-16T18:34:49.613Z,7.47
2022-12-16T18:40:09.811Z,6.83
2022-12-16T18:45:29.884Z,6.57
2022-12-16T18:50:50.133Z,7.20
2022-12-16T18:56:10.383Z,7.43
2022-12-16T19:01:30.865Z,8.23
2022-12-16T19:06:50.839Z,7.53
2022-12-16T19:12:11.110Z,7.47
2022-12-16T19:17:31.353Z,7.73
2022-12-16T19:22:51.687Z,7.43
2022-12-16T19:28:11.745Z,7.20
2022-12-16T19:33:31.978Z,6.63
2022-12-16T19:38:52.073Z,8.30
2022-12-16T19:44:12.237Z,7.53
2022-12-16T19:49:32.423Z,8.10
2022-12-16T19:54:54.782Z,8.27
2022-12-16T20:00:16.287Z,9.23
2022-12-16T20:05:36.464Z,8.20
2022-12-16T20:10:56.675Z,8.27
2022-12-16T20:16:16.948Z,8.77
2022-12-16T20:21:37.401Z,9.77
2022-12-16T20:26:57.626Z,8.53
2022-12-16T20:32:17.777Z,9.80
2022-12-16T20:37:37.999Z,8.37
2022-12-16T20:42:58.406Z,8.90
2022-12-16T20:48:18.539Z,8.00
2022-12-16T20:53:39.279Z,9.33
2022-12-16T20:58:59.388Z,8.30
2022-12-16T21:04:19.645Z,10.03
2022-12-16T21:09:39.903Z,8.30
2022-12-16T21:15:00.127Z,8.63
2022-12-16T21:20:20.094Z,8.93
2022-12-16T21:25:40.332Z,9.93
2022-12-16T21:31:00.468Z,9.10
2022-12-16T21:36:20.691Z,9.47
2022-12-16T21:41:40.794Z,10.10
2022-12-16T21:47:01.091Z,9.67
2022-12-16T21:52:24.211Z,8.50
2022-12-16T21:57:44.439Z,9.03
2022-12-16T22:03:04.474Z,8.93
2022-12-16T22:08:24.696Z,9.33
2022-12-16T22:13:44.725Z,10.63
2022-12-16T22:19:04.912Z,9.23
2022-12-16T22:24:24.991Z,10.10
2022-12-16T22:29:45.297Z,9.67
2022-12-16T22:35:05.447Z,8.60
2022-12-16T22:40:25.722Z,10.00
2022-12-16T22:45:45.897Z,9.23
2022-12-16T22:51:06.123Z,11.23
2022-12-16T22:56:26.222Z,9.83
2022-12-16T23:01:46.471Z,9.90
2022-12-16T23:07:06.460Z,11.27
2022-12-16T23:12:26.701Z,9.30
2022-12-16T23:17:46.751Z,9.63
2022-12-16T23:23:07.106Z,10.30
2022-12-16T23:28:27.273Z,9.30
2022-12-16T23:33:47.383Z,10.70
2022-12-16T23:39:07.578Z,10.63
2022-12-16T23:44:27.742Z,9.63
2022-12-16T23:49:47.875Z,9.87
2022-12-16T23:55:07.990Z,9.87
